CZUM/ZUM METAR and TAF weather

Enter ICAO airport designator
Station Type Date Time Source
CZUM METAR 2020/02/26 09:00 UTC NOAA

CZUM 260900Z AUTO 32006KT 9SM CLR M26/M30 A3005 RMK SLP226


Station Type Date Time Source
CZUM Decoded METAR 2020/02/26 09:00 UTC NOAA

Churchill Falls, Nfld., Canada (CZUM) 53-33N 064-06W 440M
Feb 26, 2020 - 04:00 AM EST / 2020.02.26 0900 UTC
Wind: from the NW (320 degrees) at 7 MPH (6 KT):0
Visibility: 9 mile(s):0
Sky conditions: clear
Temperature: -14 F (-26 C)
Windchill: -29 F (-34 C):2
Dew Point: -22 F (-30 C)
Relative Humidity: 69%
Pressure (altimeter): 30.05 in. Hg (1017 hPa)
ob: CZUM 260900Z AUTO 32006KT 9SM CLR M26/M30 A3005 RMK SLP226
cycle: 9

Station Type Date Time Source
CZUM TAF 2020/02/26 08:39 UTC NOAA

TAF CZUM 260738Z 2608/2620 32006KT P6SM FEW100
TEMPO 2608/2620 5SM IC
RMK FCST BASED ON AUTO OBS. NXT FCST BY 261400Z

Example: see airport list